createdAt,value
2018-07-16T00:00:32.623Z,968.4
2018-07-16T00:01:34.284Z,968.4
2018-07-16T00:02:35.937Z,968.4
2018-07-16T00:03:37.656Z,968.4
2018-07-16T00:04:39.353Z,968.4
2018-07-16T00:05:41.031Z,968.4
2018-07-16T00:06:42.702Z,968.4
2018-07-16T00:07:44.382Z,968.4
2018-07-16T00:08:46.084Z,968.3
2018-07-16T00:09:47.750Z,968.4
2018-07-16T00:10:49.450Z,968.4
2018-07-16T00:11:51.113Z,968.3
2018-07-16T00:12:52.871Z,968.4
2018-07-16T00:13:54.711Z,968.4
2018-07-16T00:14:56.382Z,968.3
2018-07-16T00:15:58.059Z,968.4
2018-07-16T00:16:59.802Z,968.4
2018-07-16T00:18:01.570Z,968.3
2018-07-16T00:19:03.188Z,968.3
2018-07-16T00:20:05.416Z,968.3
2018-07-16T00:21:07.070Z,968.3
2018-07-16T00:22:08.731Z,968.3
2018-07-16T00:23:10.396Z,968.3
2018-07-16T00:24:12.080Z,968.3
2018-07-16T00:25:13.754Z,968.3
2018-07-16T00:26:15.433Z,968.2
2018-07-16T00:27:17.112Z,968.2
2018-07-16T00:28:18.773Z,968.3
2018-07-16T00:29:20.440Z,968.3
2018-07-16T00:30:22.097Z,968.3
2018-07-16T00:31:23.779Z,968.2
2018-07-16T00:32:25.443Z,968.3
2018-07-16T00:33:27.102Z,968.2
2018-07-16T00:34:28.769Z,968.2
2018-07-16T00:35:30.428Z,968.2
2018-07-16T00:36:32.080Z,968.2
2018-07-16T00:37:33.741Z,968.2
2018-07-16T00:38:35.409Z,968.3
2018-07-16T00:39:37.072Z,968.2
2018-07-16T00:40:38.731Z,968.2
2018-07-16T00:41:40.407Z,968.2
2018-07-16T00:42:42.074Z,968.2
2018-07-16T00:43:43.741Z,968.2
2018-07-16T00:44:45.412Z,968.2
2018-07-16T00:45:47.074Z,968.1
2018-07-16T00:46:48.731Z,968.1
2018-07-16T00:47:50.396Z,968.1
2018-07-16T00:48:52.053Z,968.1
2018-07-16T00:49:53.726Z,968.1
2018-07-16T00:50:55.384Z,968.1
2018-07-16T00:51:57.048Z,968.1
2018-07-16T00:52:58.702Z,968.1
2018-07-16T00:54:00.366Z,968.1
2018-07-16T00:55:02.145Z,968.1
2018-07-16T00:56:03.762Z,968.0
2018-07-16T00:57:05.432Z,968.0
2018-07-16T00:58:07.248Z,968.1
2018-07-16T00:59:08.913Z,968.0
2018-07-16T01:00:10.581Z,968.0
2018-07-16T01:01:12.247Z,968.0
2018-07-16T01:02:13.913Z,968.0
2018-07-16T01:03:15.573Z,968.0
2018-07-16T01:04:17.233Z,968.0
2018-07-16T01:05:18.892Z,968.0
2018-07-16T01:06:20.567Z,968.0
2018-07-16T01:07:22.226Z,968.0
2018-07-16T01:08:23.899Z,968.0
2018-07-16T01:09:25.551Z,967.9
2018-07-16T01:10:27.214Z,968.0
2018-07-16T01:11:28.876Z,968.0
2018-07-16T01:12:30.543Z,968.0
2018-07-16T01:13:32.198Z,967.9
2018-07-16T01:14:33.862Z,967.9
2018-07-16T01:15:35.525Z,968.0
2018-07-16T01:16:37.179Z,967.9
2018-07-16T01:17:38.844Z,967.9
2018-07-16T01:18:40.511Z,967.9
2018-07-16T01:19:42.178Z,967.9
2018-07-16T01:20:43.841Z,967.9
2018-07-16T01:21:45.501Z,967.9
2018-07-16T01:22:47.878Z,967.9
2018-07-16T01:23:49.543Z,967.9
2018-07-16T01:24:51.265Z,967.9
2018-07-16T01:25:52.871Z,967.9
2018-07-16T01:26:54.532Z,967.9
2018-07-16T01:27:56.215Z,967.8
2018-07-16T01:28:57.879Z,967.9
2018-07-16T01:29:59.555Z,967.8
2018-07-16T01:31:01.303Z,967.8
2018-07-16T01:32:02.968Z,967.8
2018-07-16T01:33:04.631Z,967.8
2018-07-16T01:34:06.320Z,967.8
2018-07-16T01:35:07.989Z,967.9
2018-07-16T01:36:09.648Z,967.8
2018-07-16T01:37:11.316Z,967.8
2018-07-16T01:38:12.979Z,967.8
2018-07-16T01:39:14.639Z,967.8
2018-07-16T01:40:16.301Z,967.8
2018-07-16T01:41:17.952Z,967.8
2018-07-16T01:42:19.627Z,967.8
2018-07-16T01:43:21.286Z,967.9
2018-07-16T01:44:22.943Z,967.8
2018-07-16T01:45:24.607Z,967.8
2018-07-16T01:46:26.263Z,967.8
2018-07-16T01:47:27.935Z,967.9
2018-07-16T01:48:29.605Z,967.8
2018-07-16T01:49:31.260Z,967.8
2018-07-16T01:50:32.926Z,967.8
2018-07-16T01:51:34.579Z,967.8
2018-07-16T01:52:36.263Z,967.8
2018-07-16T01:53:37.930Z,967.8
2018-07-16T01:54:39.599Z,967.8
2018-07-16T02:01:05.048Z,967.8
2018-07-16T02:02:06.746Z,967.7
2018-07-16T02:03:08.393Z,967.8
2018-07-16T02:04:10.063Z,967.8
2018-07-16T02:05:11.780Z,967.7
2018-07-16T02:06:13.432Z,967.7
2018-07-16T02:07:15.113Z,967.8
2018-07-16T02:08:16.774Z,967.7
2018-07-16T02:09:18.431Z,967.7
2018-07-16T02:10:20.085Z,967.7
2018-07-16T02:11:21.760Z,967.7
2018-07-16T02:12:23.416Z,967.7
2018-07-16T02:13:25.068Z,967.8
2018-07-16T02:14:26.723Z,967.8
2018-07-16T02:15:28.463Z,967.8
2018-07-16T02:16:30.131Z,967.8
2018-07-16T02:17:31.787Z,967.8
2018-07-16T02:18:33.447Z,967.8
2018-07-16T02:19:35.116Z,967.8
2018-07-16T02:20:36.769Z,967.8
2018-07-16T02:21:38.437Z,967.8
2018-07-16T02:22:40.106Z,967.9
2018-07-16T02:23:41.766Z,967.8
2018-07-16T02:24:43.428Z,967.8
2018-07-16T02:25:45.086Z,967.9
2018-07-16T02:26:46.745Z,967.9
2018-07-16T02:27:48.417Z,967.8
2018-07-16T02:28:50.091Z,967.9
2018-07-16T02:29:51.785Z,967.9
2018-07-16T02:30:53.421Z,967.9
2018-07-16T02:31:55.083Z,967.8
2018-07-16T02:32:56.756Z,967.9
2018-07-16T02:33:58.416Z,967.8
2018-07-16T02:35:00.086Z,967.9
2018-07-16T02:36:01.745Z,967.9
2018-07-16T02:37:03.401Z,967.9
2018-07-16T02:38:05.075Z,967.9
2018-07-16T02:39:06.772Z,967.9
2018-07-16T02:40:08.428Z,967.9
2018-07-16T02:41:10.098Z,967.9
2018-07-16T02:42:11.765Z,967.9
2018-07-16T02:43:13.427Z,967.9
2018-07-16T02:44:15.080Z,967.9
2018-07-16T02:45:16.738Z,967.9
2018-07-16T02:46:18.399Z,967.9
2018-07-16T02:47:20.060Z,967.9
2018-07-16T02:48:21.714Z,967.9
2018-07-16T02:49:23.375Z,967.8
2018-07-16T02:50:25.043Z,967.8
2018-07-16T02:51:26.699Z,967.9
2018-07-16T02:52:28.354Z,967.9
2018-07-16T02:53:30.020Z,967.9
2018-07-16T02:54:31.676Z,967.9
2018-07-16T02:55:33.333Z,967.9
2018-07-16T02:56:35.083Z,967.8
2018-07-16T02:57:36.655Z,967.8
2018-07-16T02:58:38.312Z,967.8
2018-07-16T02:59:39.974Z,967.9
2018-07-16T03:00:41.630Z,967.8
2018-07-16T03:01:43.295Z,967.8
2018-07-16T03:02:44.963Z,967.9
2018-07-16T03:03:46.625Z,967.8
2018-07-16T03:04:48.291Z,967.8
2018-07-16T03:05:49.953Z,967.8
2018-07-16T03:06:51.613Z,967.8
2018-07-16T03:07:53.274Z,967.8
2018-07-16T03:08:54.934Z,967.8
2018-07-16T03:09:56.592Z,967.8
2018-07-16T03:10:58.284Z,967.8
2018-07-16T03:12:00.434Z,967.8
2018-07-16T03:13:02.103Z,967.8
2018-07-16T03:14:03.760Z,967.9
2018-07-16T03:15:05.428Z,967.9
2018-07-16T03:16:07.086Z,967.9
2018-07-16T03:17:08.755Z,967.9
2018-07-16T03:18:10.551Z,967.8
2018-07-16T03:19:12.082Z,967.8
2018-07-16T03:20:13.749Z,967.9
2018-07-16T03:21:15.406Z,967.9
2018-07-16T03:22:17.106Z,967.8
2018-07-16T03:23:18.763Z,967.8
2018-07-16T03:24:20.427Z,967.8
2018-07-16T03:25:22.092Z,967.8
2018-07-16T03:26:23.752Z,967.8
2018-07-16T03:27:25.416Z,967.8
2018-07-16T03:28:27.084Z,967.8
2018-07-16T03:29:28.738Z,967.9
2018-07-16T03:30:30.407Z,967.8
2018-07-16T03:31:32.079Z,967.9
2018-07-16T03:32:33.747Z,967.9
2018-07-16T03:33:35.417Z,967.9
2018-07-16T03:34:37.085Z,967.8
2018-07-16T03:35:38.746Z,967.8
2018-07-16T03:36:40.414Z,967.9
2018-07-16T03:37:42.075Z,967.8
2018-07-16T03:38:43.744Z,967.8
2018-07-16T03:39:45.409Z,967.8
2018-07-16T03:40:47.073Z,967.8
2018-07-16T03:41:48.751Z,967.8
2018-07-16T03:42:50.408Z,967.8
2018-07-16T03:43:52.072Z,967.8
2018-07-16T03:44:53.737Z,967.8
2018-07-16T03:45:55.399Z,967.8
2018-07-16T03:46:57.071Z,967.8
2018-07-16T03:47:58.775Z,967.8
2018-07-16T03:49:00.410Z,967.8
2018-07-16T03:50:02.070Z,967.8
2018-07-16T03:51:03.736Z,967.8
2018-07-16T03:52:05.401Z,967.8
2018-07-16T03:53:07.068Z,967.7
2018-07-16T03:54:08.738Z,967.7
2018-07-16T03:55:10.402Z,967.8
2018-07-16T03:56:12.077Z,967.7
2018-07-16T03:57:13.788Z,967.7
2018-07-16T03:58:15.448Z,967.7
2018-07-16T03:59:17.114Z,967.7
2018-07-16T04:00:18.956Z,967.8
2018-07-16T04:01:20.625Z,967.7
2018-07-16T04:02:22.290Z,967.8
2018-07-16T04:03:23.961Z,967.7
2018-07-16T04:04:25.625Z,967.8
2018-07-16T04:05:27.295Z,967.8
2018-07-16T04:06:28.962Z,967.8
2018-07-16T04:07:30.633Z,967.7
2018-07-16T04:08:32.298Z,967.8
2018-07-16T04:09:33.964Z,967.8
2018-07-16T04:10:35.632Z,967.8
2018-07-16T04:11:37.294Z,967.8
2018-07-16T04:12:38.971Z,967.8
2018-07-16T04:13:40.632Z,967.8
2018-07-16T04:14:42.301Z,967.8
2018-07-16T04:15:43.964Z,967.8
2018-07-16T04:16:45.742Z,967.7
2018-07-16T04:17:47.405Z,967.7
2018-07-16T04:18:49.073Z,967.8
2018-07-16T04:19:50.743Z,967.7
2018-07-16T04:20:52.403Z,967.7
2018-07-16T04:21:54.070Z,967.7
2018-07-16T04:22:55.744Z,967.7
2018-07-16T04:23:57.414Z,967.7
2018-07-16T04:24:59.083Z,967.7
2018-07-16T04:26:00.759Z,967.7
2018-07-16T04:27:02.460Z,967.7
2018-07-16T04:28:04.181Z,967.7
2018-07-16T04:29:05.872Z,967.7
2018-07-16T04:30:07.550Z,967.7
2018-07-16T04:31:09.210Z,967.6
2018-07-16T04:32:10.918Z,967.7
2018-07-16T04:33:12.585Z,967.6
2018-07-16T04:34:14.253Z,967.6
2018-07-16T04:35:15.927Z,967.6
2018-07-16T04:36:17.605Z,967.6
2018-07-16T04:37:19.265Z,967.6
2018-07-16T04:38:20.931Z,967.7
2018-07-16T04:39:22.606Z,967.6
2018-07-16T04:40:24.264Z,967.6
2018-07-16T04:41:25.929Z,967.7
2018-07-16T04:42:27.588Z,967.7
2018-07-16T04:43:29.257Z,967.6
2018-07-16T04:44:30.939Z,967.7
2018-07-16T04:45:32.611Z,967.7
2018-07-16T04:46:34.280Z,967.7
2018-07-16T04:47:35.943Z,967.7
2018-07-16T04:48:37.619Z,967.7
2018-07-16T04:49:39.283Z,967.7
2018-07-16T04:50:40.957Z,967.7
2018-07-16T04:51:42.623Z,967.7
2018-07-16T04:52:44.336Z,967.7
2018-07-16T04:53:46.053Z,967.7
2018-07-16T04:54:47.712Z,967.7
2018-07-16T04:55:49.392Z,967.7
2018-07-16T04:56:51.049Z,967.7
2018-07-16T04:57:52.724Z,967.7
2018-07-16T04:58:54.402Z,967.7
2018-07-16T04:59:56.078Z,967.6
2018-07-16T05:00:57.761Z,967.7
2018-07-16T05:01:59.433Z,967.7
2018-07-16T05:03:01.110Z,967.8
2018-07-16T05:04:02.809Z,967.7
2018-07-16T05:05:04.476Z,967.8
2018-07-16T05:06:06.177Z,967.8
2018-07-16T05:07:07.857Z,967.8
2018-07-16T05:08:09.526Z,967.8
2018-07-16T05:09:11.187Z,967.8
2018-07-16T05:10:12.859Z,967.7
2018-07-16T05:11:14.528Z,967.7
2018-07-16T05:12:16.209Z,967.7
2018-07-16T05:13:17.888Z,967.7
2018-07-16T05:14:19.552Z,967.7
2018-07-16T05:15:21.225Z,967.7
2018-07-16T05:16:22.900Z,967.7
2018-07-16T05:17:24.571Z,967.7
2018-07-16T05:18:26.351Z,967.6
2018-07-16T05:19:27.870Z,967.6
2018-07-16T05:20:29.558Z,967.7
2018-07-16T05:21:31.222Z,967.6
2018-07-16T05:22:32.902Z,967.7
2018-07-16T05:23:34.573Z,967.7
2018-07-16T05:24:36.263Z,967.7
2018-07-16T05:25:37.929Z,967.6
2018-07-16T05:26:39.662Z,967.7
2018-07-16T05:27:41.334Z,967.7
2018-07-16T05:28:43.011Z,967.7
2018-07-16T05:29:44.684Z,967.7
2018-07-16T05:30:46.372Z,967.7
2018-07-16T05:31:48.107Z,967.7
2018-07-16T05:32:49.788Z,967.7
2018-07-16T05:33:51.395Z,967.7
2018-07-16T05:34:53.085Z,967.7
2018-07-16T05:35:54.747Z,967.7
2018-07-16T05:36:56.424Z,967.7
2018-07-16T05:37:58.090Z,967.7
2018-07-16T05:38:59.768Z,967.7
2018-07-16T05:40:01.436Z,967.7
2018-07-16T05:41:03.111Z,967.7
2018-07-16T05:42:04.782Z,967.7
2018-07-16T05:43:06.483Z,967.7
2018-07-16T05:44:08.158Z,967.7
2018-07-16T05:45:09.820Z,967.7
2018-07-16T05:46:11.490Z,967.7
2018-07-16T05:47:13.215Z,967.7
2018-07-16T05:48:14.836Z,967.7
2018-07-16T05:49:16.506Z,967.7
2018-07-16T05:50:18.178Z,967.7
2018-07-16T05:51:19.852Z,967.7
2018-07-16T05:52:21.524Z,967.7
2018-07-16T05:53:23.190Z,967.7
2018-07-16T05:54:24.869Z,967.7
2018-07-16T05:55:26.541Z,967.7
2018-07-16T06:01:53.729Z,967.7
2018-07-16T06:02:55.424Z,967.7
2018-07-16T06:04:47.392Z,967.7
2018-07-16T06:05:49.064Z,967.7
2018-07-16T06:07:40.950Z,967.7
2018-07-16T06:08:42.630Z,967.8
2018-07-16T06:10:34.535Z,967.8
2018-07-16T06:11:36.206Z,967.8
2018-07-16T06:13:28.093Z,967.8
2018-07-16T06:14:29.771Z,967.7
2018-07-16T06:16:21.679Z,967.8
2018-07-16T06:17:23.350Z,967.7
2018-07-16T06:19:15.306Z,967.7
2018-07-16T06:20:16.979Z,967.8
2018-07-16T06:21:18.658Z,967.8
2018-07-16T06:22:20.326Z,967.8
2018-07-16T06:23:22.004Z,967.7
2018-07-16T06:24:23.670Z,967.8
2018-07-16T06:25:25.342Z,967.7
2018-07-16T06:26:27.024Z,967.8
2018-07-16T06:27:28.692Z,967.8
2018-07-16T06:28:30.373Z,967.8
2018-07-16T06:29:32.047Z,967.8
2018-07-16T06:30:33.720Z,967.8
2018-07-16T06:31:35.403Z,967.7
2018-07-16T06:32:37.082Z,967.8
2018-07-16T06:33:38.782Z,967.7
2018-07-16T06:34:40.461Z,967.8
2018-07-16T06:35:42.143Z,967.8
2018-07-16T06:36:43.819Z,967.7
2018-07-16T06:37:45.492Z,967.8
2018-07-16T06:38:47.179Z,967.8
2018-07-16T06:39:48.932Z,967.8
2018-07-16T06:40:50.564Z,967.8
2018-07-16T06:41:52.170Z,967.8
2018-07-16T06:42:53.847Z,967.8
2018-07-16T06:43:55.528Z,967.7
2018-07-16T06:44:57.215Z,967.7
2018-07-16T06:45:58.895Z,967.7
2018-07-16T06:47:00.580Z,967.8
2018-07-16T06:48:02.265Z,967.8
2018-07-16T06:49:03.944Z,967.8
2018-07-16T06:50:05.621Z,967.7
2018-07-16T06:51:07.302Z,967.7
2018-07-16T06:52:08.985Z,967.7
2018-07-16T06:53:10.666Z,967.7
2018-07-16T06:54:12.358Z,967.7
2018-07-16T06:55:14.090Z,967.7
2018-07-16T06:56:15.721Z,967.7
2018-07-16T06:57:17.403Z,967.7
2018-07-16T06:58:19.096Z,967.7
2018-07-16T06:59:20.778Z,967.7
2018-07-16T07:00:22.466Z,967.7
2018-07-16T07:01:24.157Z,967.7
2018-07-16T07:02:25.858Z,967.8
2018-07-16T07:03:27.517Z,967.7
2018-07-16T07:04:29.204Z,967.8
2018-07-16T07:05:30.904Z,967.7
2018-07-16T07:06:32.586Z,967.7
2018-07-16T07:07:34.274Z,967.8
2018-07-16T07:08:35.959Z,967.8
2018-07-16T07:09:37.649Z,967.8
2018-07-16T07:10:39.327Z,967.8
2018-07-16T07:11:41.008Z,967.8
2018-07-16T07:12:42.692Z,967.8
2018-07-16T07:13:44.388Z,967.8
2018-07-16T07:14:46.072Z,967.7
2018-07-16T07:15:47.766Z,967.7
2018-07-16T07:16:49.428Z,967.7
2018-07-16T07:17:51.135Z,967.7
2018-07-16T07:18:52.816Z,967.7
2018-07-16T07:19:54.522Z,967.7
2018-07-16T07:20:56.208Z,967.7
2018-07-16T07:21:57.882Z,967.7
2018-07-16T07:22:59.564Z,967.7
2018-07-16T07:24:01.265Z,967.7
2018-07-16T07:25:02.940Z,967.6
2018-07-16T07:26:04.674Z,967.7
2018-07-16T07:27:06.385Z,967.7
2018-07-16T07:28:08.076Z,967.7
2018-07-16T07:29:09.776Z,967.7
2018-07-16T07:30:11.487Z,967.7
2018-07-16T07:31:13.160Z,967.6
2018-07-16T07:32:14.840Z,967.6
2018-07-16T07:33:16.527Z,967.6
2018-07-16T07:34:18.220Z,967.6
2018-07-16T07:35:19.949Z,967.6
2018-07-16T07:36:21.572Z,967.6
2018-07-16T07:37:23.256Z,967.6
2018-07-16T07:38:24.943Z,967.6
2018-07-16T07:39:26.629Z,967.6
2018-07-16T07:40:28.312Z,967.6
2018-07-16T07:41:29.995Z,967.6
2018-07-16T07:42:31.690Z,967.6
2018-07-16T07:43:33.385Z,967.6
2018-07-16T07:44:35.079Z,967.6
2018-07-16T07:45:36.771Z,967.6
2018-07-16T07:46:38.452Z,967.5
2018-07-16T07:47:40.153Z,967.5
2018-07-16T07:48:41.822Z,967.5
2018-07-16T07:49:43.523Z,967.5
2018-07-16T07:50:45.213Z,967.5
2018-07-16T07:51:46.894Z,967.5
2018-07-16T07:52:48.594Z,967.5
2018-07-16T07:53:50.303Z,967.5
2018-07-16T07:54:52.281Z,967.5
2018-07-16T07:55:53.645Z,967.5
2018-07-16T07:56:55.328Z,967.5
2018-07-16T07:57:57.022Z,967.5
2018-07-16T07:58:58.721Z,967.5
2018-07-16T08:00:00.402Z,967.5
2018-07-16T08:01:02.085Z,967.5
2018-07-16T08:02:03.777Z,967.4
2018-07-16T08:03:05.469Z,967.5
2018-07-16T08:04:07.152Z,967.4
2018-07-16T08:05:08.865Z,967.4
2018-07-16T08:06:10.558Z,967.4
2018-07-16T08:07:12.242Z,967.4
2018-07-16T08:08:13.933Z,967.4
2018-07-16T08:09:15.620Z,967.4
2018-07-16T08:10:17.318Z,967.4
2018-07-16T08:11:18.993Z,967.4
2018-07-16T08:12:20.678Z,967.4
2018-07-16T08:13:22.380Z,967.4
2018-07-16T08:14:24.066Z,967.4
2018-07-16T08:15:25.768Z,967.4
2018-07-16T08:16:27.460Z,967.4
2018-07-16T08:17:29.190Z,967.4
2018-07-16T08:18:30.883Z,967.4
2018-07-16T08:19:32.568Z,967.4
2018-07-16T08:20:34.251Z,967.3
2018-07-16T08:21:35.971Z,967.3
2018-07-16T08:22:37.675Z,967.4
2018-07-16T08:23:39.361Z,967.4
2018-07-16T08:24:41.052Z,967.3
2018-07-16T08:25:42.744Z,967.4
2018-07-16T08:26:44.426Z,967.4
2018-07-16T08:27:46.117Z,967.3
2018-07-16T08:28:47.763Z,967.3
2018-07-16T08:29:49.450Z,967.4
2018-07-16T08:30:51.139Z,967.4
2018-07-16T08:31:52.828Z,967.4
2018-07-16T08:32:54.510Z,967.4
2018-07-16T08:33:56.200Z,967.4
2018-07-16T08:34:57.894Z,967.4
2018-07-16T08:35:59.589Z,967.4
2018-07-16T08:37:01.277Z,967.4
2018-07-16T08:38:02.962Z,967.4
2018-07-16T08:39:04.666Z,967.4
2018-07-16T08:40:06.364Z,967.4
2018-07-16T08:41:08.045Z,967.3
2018-07-16T08:42:09.739Z,967.3
2018-07-16T08:43:11.434Z,967.4
2018-07-16T08:44:13.123Z,967.3
2018-07-16T08:45:14.817Z,967.3
2018-07-16T08:46:16.553Z,967.3
2018-07-16T08:47:18.199Z,967.3
2018-07-16T08:48:19.891Z,967.3
2018-07-16T08:49:21.575Z,967.3
2018-07-16T08:50:23.317Z,967.3
2018-07-16T08:51:25.001Z,967.3
2018-07-16T08:52:26.690Z,967.3
2018-07-16T08:53:28.416Z,967.3
2018-07-16T08:54:30.113Z,967.3
2018-07-16T08:55:31.812Z,967.3
2018-07-16T08:56:33.505Z,967.3
2018-07-16T08:57:35.269Z,967.3
2018-07-16T08:58:36.948Z,967.3
2018-07-16T08:59:38.636Z,967.3
2018-07-16T09:00:40.337Z,967.3
2018-07-16T09:01:42.024Z,967.3
2018-07-16T09:02:43.724Z,967.2
2018-07-16T09:03:45.419Z,967.3
2018-07-16T09:04:47.112Z,967.3
2018-07-16T09:05:48.803Z,967.3
2018-07-16T09:06:50.495Z,967.3
2018-07-16T09:07:52.246Z,967.2
2018-07-16T09:08:54.011Z,967.2
2018-07-16T09:09:55.704Z,967.2
2018-07-16T09:10:57.426Z,967.2
2018-07-16T09:11:59.054Z,967.2
2018-07-16T09:13:00.739Z,967.2
2018-07-16T09:14:02.426Z,967.2
2018-07-16T09:15:04.117Z,967.2
2018-07-16T09:16:05.851Z,967.3
2018-07-16T09:17:07.520Z,967.2
2018-07-16T09:18:09.228Z,967.3
2018-07-16T09:19:10.948Z,967.2
2018-07-16T09:20:12.611Z,967.3
2018-07-16T09:21:14.291Z,967.3
2018-07-16T09:22:15.986Z,967.3
2018-07-16T09:23:17.676Z,967.3
2018-07-16T09:24:19.374Z,967.3
2018-07-16T09:25:21.096Z,967.3
2018-07-16T09:26:22.764Z,967.2
2018-07-16T09:27:24.437Z,967.2
2018-07-16T09:28:26.137Z,967.2
2018-07-16T09:29:27.850Z,967.2
2018-07-16T09:30:29.541Z,967.2
2018-07-16T09:31:31.242Z,967.2
2018-07-16T09:32:32.984Z,967.2
2018-07-16T09:33:34.647Z,967.2
2018-07-16T09:34:36.337Z,967.2
2018-07-16T09:35:38.024Z,967.2
2018-07-16T09:36:39.712Z,967.2
2018-07-16T09:37:41.405Z,967.1
2018-07-16T09:38:43.091Z,967.1
2018-07-16T09:39:44.784Z,967.1
2018-07-16T09:40:46.478Z,967.1
2018-07-16T09:41:48.175Z,967.1
2018-07-16T09:42:49.866Z,967.1
2018-07-16T09:43:51.547Z,967.1
2018-07-16T09:44:53.244Z,967.1
2018-07-16T09:45:54.932Z,967.1
2018-07-16T09:46:56.620Z,967.1
2018-07-16T09:47:58.315Z,967.1
2018-07-16T09:49:00.003Z,967.0
2018-07-16T09:50:01.697Z,967.0
2018-07-16T09:51:03.396Z,967.0
2018-07-16T09:52:05.080Z,967.1
2018-07-16T09:53:06.829Z,967.0
2018-07-16T09:54:08.535Z,967.0
2018-07-16T09:55:10.239Z,967.1
2018-07-16T10:01:25.087Z,967.0
2018-07-16T10:02:26.779Z,967.0
2018-07-16T10:03:28.473Z,967.0
2018-07-16T10:04:30.152Z,966.9
2018-07-16T10:05:31.847Z,967.0
2018-07-16T10:06:33.533Z,966.9
2018-07-16T10:07:35.225Z,966.9
2018-07-16T10:08:36.934Z,967.0
2018-07-16T10:09:38.719Z,967.0
2018-07-16T10:10:40.416Z,966.9
2018-07-16T10:11:42.104Z,967.0
2018-07-16T10:12:43.806Z,967.0
2018-07-16T10:13:45.510Z,967.0
2018-07-16T10:14:47.221Z,967.0
2018-07-16T10:15:48.926Z,967.0
2018-07-16T10:16:50.643Z,967.0
2018-07-16T10:17:52.338Z,966.9
2018-07-16T10:18:54.046Z,966.9
2018-07-16T10:19:55.757Z,966.9
2018-07-16T10:20:57.445Z,966.9
2018-07-16T10:21:59.755Z,966.9
2018-07-16T10:23:02.394Z,966.9
2018-07-16T10:24:04.140Z,966.8
2018-07-16T10:25:05.855Z,966.9
2018-07-16T10:26:07.580Z,966.9
2018-07-16T10:27:09.406Z,967.0
2018-07-16T10:28:11.442Z,966.9
2018-07-16T10:29:13.130Z,966.9
2018-07-16T10:30:15.088Z,966.9
2018-07-16T10:31:16.889Z,966.9
2018-07-16T10:32:18.598Z,966.9
2018-07-16T10:33:20.654Z,966.9
2018-07-16T10:34:22.716Z,967.0
2018-07-16T10:35:24.608Z,967.0
2018-07-16T10:36:26.348Z,966.9
2018-07-16T10:37:28.143Z,966.9
2018-07-16T10:38:29.832Z,966.7
2018-07-16T10:39:31.565Z,966.9
2018-07-16T10:40:33.400Z,966.8
2018-07-16T10:41:36.402Z,966.9
2018-07-16T10:42:38.113Z,966.8
2018-07-16T10:43:39.921Z,966.6
2018-07-16T10:44:41.857Z,966.7
2018-07-16T10:45:43.592Z,966.8
2018-07-16T10:46:45.649Z,966.9
2018-07-16T10:47:47.577Z,966.8
2018-07-16T10:48:49.445Z,966.8
2018-07-16T10:49:51.787Z,966.8
2018-07-16T10:50:53.792Z,966.7
2018-07-16T10:51:55.651Z,966.7
2018-07-16T10:52:57.640Z,966.8
2018-07-16T10:53:59.863Z,967.0
2018-07-16T10:55:01.516Z,967.0
2018-07-16T10:56:04.253Z,967.0
2018-07-16T10:57:06.629Z,966.9
2018-07-16T10:58:08.898Z,966.9
2018-07-16T10:59:12.653Z,966.9
2018-07-16T11:00:14.868Z,966.9
2018-07-16T11:01:17.249Z,966.9
2018-07-16T11:02:19.216Z,966.9
2018-07-16T11:03:21.220Z,966.9
2018-07-16T11:04:23.564Z,966.8
2018-07-16T11:05:26.207Z,966.8
2018-07-16T11:06:28.252Z,966.8
2018-07-16T11:07:31.952Z,966.8
2018-07-16T11:08:34.137Z,966.8
2018-07-16T11:09:35.901Z,966.9
2018-07-16T11:10:38.390Z,966.8
2018-07-16T11:11:40.468Z,966.8
2018-07-16T11:12:43.543Z,966.8
2018-07-16T11:13:46.144Z,966.9
2018-07-16T11:14:48.218Z,966.8
2018-07-16T11:15:50.458Z,966.8
2018-07-16T11:16:52.198Z,966.8
2018-07-16T11:17:54.090Z,966.8
2018-07-16T11:18:55.852Z,966.8
2018-07-16T11:19:58.042Z,966.8
2018-07-16T11:21:00.457Z,966.9
2018-07-16T11:22:02.575Z,966.8
2018-07-16T11:23:05.120Z,966.8
2018-07-16T11:24:07.704Z,966.9
2018-07-16T11:25:09.483Z,967.0
2018-07-16T11:26:11.520Z,967.0
2018-07-16T11:27:13.578Z,966.9
2018-07-16T11:28:15.904Z,967.0
2018-07-16T11:29:17.679Z,967.0
2018-07-16T11:30:19.445Z,967.0
2018-07-16T11:31:22.273Z,967.0
2018-07-16T11:32:25.015Z,967.0
2018-07-16T11:33:27.368Z,967.1
2018-07-16T11:34:29.581Z,967.0
2018-07-16T11:35:31.650Z,967.0
2018-07-16T11:36:34.179Z,966.9
2018-07-16T11:37:36.682Z,966.9
2018-07-16T11:38:38.421Z,966.9
2018-07-16T11:39:40.790Z,966.9
2018-07-16T11:40:42.582Z,966.9
2018-07-16T11:41:44.965Z,966.9
2018-07-16T11:42:47.385Z,966.8
2018-07-16T11:43:49.663Z,966.7
2018-07-16T11:44:54.484Z,966.7
2018-07-16T11:45:56.245Z,966.5
2018-07-16T11:46:58.043Z,966.6
2018-07-16T11:47:59.884Z,966.5
2018-07-16T11:49:01.975Z,966.5
2018-07-16T11:50:03.728Z,966.5
2018-07-16T11:51:06.448Z,966.5
2018-07-16T11:52:08.179Z,966.5
2018-07-16T11:53:09.892Z,966.5
2018-07-16T11:54:11.634Z,966.5
2018-07-16T11:55:13.413Z,966.5
2018-07-16T11:56:15.115Z,966.8
2018-07-16T11:57:16.839Z,966.8
2018-07-16T11:58:18.554Z,966.8
2018-07-16T11:59:20.323Z,966.8
2018-07-16T12:00:22.074Z,966.8
2018-07-16T12:01:23.829Z,966.8
2018-07-16T12:02:25.587Z,966.6
2018-07-16T12:03:27.416Z,966.4
2018-07-16T12:04:29.135Z,966.4
2018-07-16T12:05:30.940Z,966.5
2018-07-16T12:06:34.920Z,966.4
2018-07-16T12:07:36.516Z,966.4
2018-07-16T12:08:38.409Z,966.4
2018-07-16T12:09:40.824Z,966.4
2018-07-16T12:10:43.730Z,966.4
2018-07-16T12:11:45.509Z,966.4
2018-07-16T12:12:47.934Z,966.4
2018-07-16T12:13:50.000Z,966.4
2018-07-16T12:14:51.789Z,966.4
2018-07-16T12:15:55.539Z,966.4
2018-07-16T12:16:57.143Z,966.4
2018-07-16T12:17:58.912Z,966.4
2018-07-16T12:19:00.686Z,966.4
2018-07-16T12:20:02.469Z,966.4
2018-07-16T12:21:04.552Z,966.4
2018-07-16T12:22:06.826Z,966.5
2018-07-16T12:23:08.616Z,966.4
2018-07-16T12:24:10.724Z,966.4
2018-07-16T12:25:12.516Z,966.4
2018-07-16T12:26:18.260Z,966.4
2018-07-16T12:27:19.882Z,966.4
2018-07-16T12:28:21.628Z,966.4
2018-07-16T12:29:23.413Z,966.4
2018-07-16T12:30:25.175Z,966.4
2018-07-16T12:31:27.189Z,966.3
2018-07-16T12:32:29.082Z,966.3
2018-07-16T12:33:31.011Z,966.3
2018-07-16T12:34:32.724Z,966.3
2018-07-16T12:35:34.785Z,966.3
2018-07-16T12:36:36.758Z,966.3
2018-07-16T12:37:38.477Z,966.3
2018-07-16T12:38:40.240Z,966.3
2018-07-16T12:39:42.015Z,966.3
2018-07-16T12:40:43.696Z,966.4
2018-07-16T12:41:45.411Z,966.3
2018-07-16T12:42:47.019Z,966.4
2018-07-16T12:43:48.826Z,966.4
2018-07-16T12:44:50.485Z,966.3
2018-07-16T12:45:52.166Z,966.2
2018-07-16T12:46:54.017Z,966.2
2018-07-16T12:47:55.650Z,966.1
2018-07-16T12:48:57.554Z,966.2
2018-07-16T12:49:59.245Z,966.3
2018-07-16T12:51:00.947Z,966.4
2018-07-16T12:52:02.629Z,966.4
2018-07-16T12:53:04.304Z,966.5
2018-07-16T12:54:06.015Z,966.7
2018-07-16T12:55:07.703Z,966.7
2018-07-16T12:56:09.412Z,966.8
2018-07-16T12:57:11.126Z,966.8
2018-07-16T12:58:12.780Z,966.8
2018-07-16T12:59:14.486Z,966.6
2018-07-16T13:00:16.428Z,966.3
2018-07-16T13:01:18.129Z,966.4
2018-07-16T13:02:19.831Z,966.4
2018-07-16T13:03:21.533Z,966.8
2018-07-16T13:04:23.214Z,967.1
2018-07-16T13:05:24.928Z,967.0
2018-07-16T13:06:26.627Z,967.0
2018-07-16T13:07:28.357Z,966.9
2018-07-16T13:08:30.058Z,966.8
2018-07-16T13:09:31.749Z,966.8
2018-07-16T13:10:33.473Z,966.8
2018-07-16T13:11:35.173Z,966.7
2018-07-16T13:12:36.865Z,966.6
2018-07-16T13:13:39.012Z,966.4
2018-07-16T13:14:45.074Z,966.4
2018-07-16T13:15:46.795Z,966.1
2018-07-16T13:16:48.438Z,966.3
2018-07-16T13:17:50.156Z,966.3
2018-07-16T13:18:51.893Z,966.4
2018-07-16T13:19:53.591Z,967.0
2018-07-16T13:20:55.277Z,967.4
2018-07-16T13:22:00.984Z,967.2
2018-07-16T13:23:02.688Z,967.2
2018-07-16T13:24:04.458Z,967.4
2018-07-16T13:25:06.187Z,967.4
2018-07-16T13:26:07.887Z,967.5
2018-07-16T13:27:09.596Z,967.4
2018-07-16T13:28:11.295Z,966.2
2018-07-16T13:29:12.989Z,967.5
2018-07-16T13:30:14.725Z,967.6
2018-07-16T13:31:16.412Z,966.9
2018-07-16T13:32:18.106Z,967.7
2018-07-16T13:33:19.809Z,967.8
2018-07-16T13:34:21.495Z,968.0
2018-07-16T13:35:23.191Z,967.9
2018-07-16T13:36:24.887Z,967.5